chaosads-australia.com alexa rank chart, chaosads-australia.com alexa rank daily changes

chaosads-australia.com alexa rank chart, chaosads-australia.com alexa rank daily changes

chaosads-australia.com
Actual rank:
568 521

RANK HISTORY

Date Rank Diff
2017/10/14 568 521 -11 319
2017/10/13 579 840 -21 896
2017/10/12 601 736 -3 628
2017/10/11 605 364 -37 978
2017/10/10 643 342 -801
2017/10/09 644 143 +8 883
2017/10/08 635 260 +18 316
2017/10/07 616 944 -14 301
2017/10/06 631 245 -37 135
2017/10/05 668 380 -4 236
2017/10/04 672 616 +7 850
2017/10/03 664 766 -19 398
2017/10/02 684 164 -11 102
2017/10/01 695 266 -31 137
2017/09/30 726 403 -23 656
2017/09/29 750 059 -13 887
2017/09/28 763 946 -44 096
2017/09/27 808 042 +4 458
2017/09/26 803 584 -20 045
2017/09/25 823 629 -9 841
2017/09/24 833 470 +4 244
2017/09/23 829 226 +9 744
2017/09/22 819 482 +1 249
2017/09/20 818 233 -60 476
2017/09/19 878 709 -9 974
2017/09/18 888 683 +6 463
2017/09/17 882 220 +50 015
2017/09/16 832 205 -1 267
2017/09/15 833 472 +40 054
2017/09/14 793 418 -307
2017/09/13 793 725 +12 580
2017/09/12 781 145 -28 615
2017/09/11 809 760 +22 082
2017/09/10 787 678 -1 992
2017/09/09 789 670 -15 273
2017/09/08 804 943 +6 535
2017/09/07 798 408 -120
2017/09/06 798 528 +21 313
2017/09/05 777 215 +39 847
2017/09/04 737 368 -12 264
2017/09/03 749 632 -19 898
2017/09/02 769 530 -18 172
2017/09/01 787 702 +2 405
2017/08/31 785 297 -5 016
2017/08/30 790 313 -15 917
2017/08/29 806 230 -49 801
2017/08/28 856 031 -12 397
2017/08/27 868 428 -53 413
2017/08/26 921 841 +26 658
2017/08/25 895 183 -47 516
2017/08/24 942 699 -1 649
2017/08/23 944 348 -77
2017/08/22 944 425 +75 238
2017/08/21 869 187 +26 445
2017/08/20 842 742 +10 155
2017/08/19 832 587 +29 525
2017/08/18 803 062 +107
2017/08/17 802 955 -14 350
2017/08/16 817 305

WIDGET FOR YOUR SITE

DOMAINS WITH THE NEAREST RANK

Domain Rank
aagth1.blogspot.com 568 516
malleverest.myshopify.com 568 517
playstoredownload.blog 568 518
editorialdonostiarra.com 568 519
howar31.com 568 520
chaosads-australia.com 568 521
gowers.wordpress.com 568 522
hyperbitsmusic.com 568 523
fakeginger.com 568 524
thevoicesgmy.com 568 525
kineticvas.com 568 526

DOMAINS WITH THE NEAREST RANK BY TLD .com

Domain Rank
bacancytechnology.com 568 505
20sat.com 568 507
initialsite123.com 568 513
editorialdonostiarra.com 568 519
howar31.com 568 520
chaosads-australia.com 568 521
hyperbitsmusic.com 568 523
fakeginger.com 568 524
thevoicesgmy.com 568 525
kineticvas.com 568 526
stampsx.com 568 529